地図

経路データ

SID SEASON NUMBER BASIN SUBBASIN NAME ISO_TIME NATURE LAT LON WMO_WIND WMO_PRES WMO_AGENCY TRACK_TYPE DIST2LAND LANDFALL IFLAG USA_AGENCY USA_ATCF_ID USA_LAT USA_LON USA_RECORD USA_STATUS USA_WIND USA_PRES USA_SSHS USA_R34_NE USA_R34_SE USA_R34_SW USA_R34_NW USA_R50_NE USA_R50_SE USA_R50_SW USA_R50_NW USA_R64_NE USA_R64_SE USA_R64_SW USA_R64_NW USA_POCI USA_ROCI USA_RMW USA_EYE TOKYO_LAT TOKYO_LON TOKYO_GRADE TOKYO_WIND TOKYO_PRES TOKYO_R50_DIR TOKYO_R50_LONG TOKYO_R50_SHORT TOKYO_R30_DIR TOKYO_R30_LONG TOKYO_R30_SHORT TOKYO_LAND CMA_LAT CMA_LON CMA_CAT CMA_WIND CMA_PRES HKO_LAT HKO_LON HKO_CAT HKO_WIND HKO_PRES NEWDELHI_LAT NEWDELHI_LON NEWDELHI_GRADE NEWDELHI_WIND NEWDELHI_PRES NEWDELHI_CI NEWDELHI_DP NEWDELHI_POCI REUNION_LAT REUNION_LON REUNION_TYPE REUNION_WIND REUNION_PRES REUNION_TNUM REUNION_CI REUNION_RMW REUNION_R34_NE REUNION_R34_SE REUNION_R34_SW REUNION_R34_NW REUNION_R50_NE REUNION_R50_SE REUNION_R50_SW REUNION_R50_NW REUNION_R64_NE REUNION_R64_SE REUNION_R64_SW REUNION_R64_NW BOM_LAT BOM_LON BOM_TYPE BOM_WIND BOM_PRES BOM_TNUM BOM_CI BOM_RMW BOM_R34_NE BOM_R34_SE BOM_R34_SW BOM_R34_NW BOM_R50_NE BOM_R50_SE BOM_R50_SW BOM_R50_NW BOM_R64_NE BOM_R64_SE BOM_R64_SW BOM_R64_NW BOM_ROCI BOM_POCI BOM_EYE BOM_POS_METHOD BOM_PRES_METHOD NADI_LAT NADI_LON NADI_CAT NADI_WIND NADI_PRES WELLINGTON_LAT WELLINGTON_LON WELLINGTON_WIND WELLINGTON_PRES DS824_LAT DS824_LON DS824_STAGE DS824_WIND DS824_PRES TD9636_LAT TD9636_LON TD9636_STAGE TD9636_WIND TD9636_PRES TD9635_LAT TD9635_LON TD9635_WIND TD9635_PRES TD9635_ROCI NEUMANN_LAT NEUMANN_LON NEUMANN_CLASS NEUMANN_WIND NEUMANN_PRES MLC_LAT MLC_LON MLC_CLASS MLC_WIND MLC_PRES USA_GUST BOM_GUST BOM_GUST_PER REUNION_GUST REUNION_GUST_PER USA_SEAHGT USA_SEARAD_NE USA_SEARAD_SE USA_SEARAD_SW USA_SEARAD_NW STORM_SPEED STORM_DIR
1861042S10077 1861 6 SI MM NOT_NAMED 1861-02-11 06:00:00 NR -9.70000 77.1000 reunion main 1790 1790 _____O________ -1 -9.70000 77.1000 99 9.90000 4 212
1861042S10077 1861 6 SI MM NOT_NAMED 1861-02-11 09:00:00 NR -9.86384 76.9906 main 1814 1814 _____P________ -1 -9.86384 76.9906 99 4 213
1861042S10077 1861 6 SI MM NOT_NAMED 1861-02-11 12:00:00 NR -10.0299 76.8833 main 1828 1828 _____P________ -1 -10.0299 76.8833 99 4 211
1861042S10077 1861 6 SI MM NOT_NAMED 1861-02-11 15:00:00 NR -10.2005 76.7800 main 1852 1852 _____P________ -1 -10.2005 76.7800 99 4 209
1861042S10077 1861 6 SI MM NOT_NAMED 1861-02-11 18:00:00 NR -10.3778 76.6830 main 1876 1876 _____P________ -1 -10.3778 76.6830 99 4 206
1861042S10077 1861 6 SI MM NOT_NAMED 1861-02-11 21:00:00 NR -10.5641 76.5944 main 1901 1901 _____P________ -1 -10.5641 76.5944 99 4 203
1861042S10077 1861 6 SI MM NOT_NAMED 1861-02-12 00:00:00 NR -10.7617 76.5163 main 1925 1925 _____P________ -1 -10.7617 76.5163 99 4 199
1861042S10077 1861 6 SI MM NOT_NAMED 1861-02-12 03:00:00 NR -10.9729 76.4508 main 1947 1947 _____P________ -1 -10.9729 76.4508 99 5 195
1861042S10077 1861 6 SI MM NOT_NAMED 1861-02-12 06:00:00 NR -11.2000 76.4000 reunion main 1971 1971 _____O________ -1 -11.2000 76.4000 99 9.90000 5 190
1861042S10077 1861 6 SI MM NOT_NAMED 1861-02-12 09:00:00 NR -11.4437 76.3654 main 1993 1993 _____P________ -1 -11.4437 76.3654 99 5 186
1861042S10077 1861 6 SI MM NOT_NAMED 1861-02-12 12:00:00 NR -11.6990 76.3453 main 2028 2028 _____P________ -1 -11.6990 76.3453 99 5 183
1861042S10077 1861 6 SI MM NOT_NAMED 1861-02-12 15:00:00 NR -11.9591 76.3375 main 2061 2061 _____P________ -1 -11.9591 76.3375 99 5 182
1861042S10077 1861 6 SI MM NOT_NAMED 1861-02-12 18:00:00 NR -12.2174 76.3396 main 2083 2083 _____P________ -1 -12.2174 76.3396 99 5 0
1861042S10077 1861 6 SI MM NOT_NAMED 1861-02-12 21:00:00 NR -12.4673 76.3493 main 2115 2113 _____P________ -1 -12.4673 76.3493 99 5 0
1861042S10077 1861 6 SI MM NOT_NAMED 1861-02-13 00:00:00 NR -12.7021 76.3641 main 2135 2135 _____P________ -1 -12.7021 76.3641 99 5 175
1861042S10077 1861 6 SI MM NOT_NAMED 1861-02-13 03:00:00 NR -12.9153 76.3818 main 2146 2136 _____P________ -1 -12.9153 76.3818 99 4 175
1861042S10077 1861 6 SI MM NOT_NAMED 1861-02-13 06:00:00 NR -13.1000 76.4000 reunion main 2136 2132 _____O________ -1 -13.1000 76.4000 99 9.90000 3 0
1861042S10077 1861 6 SI MM NOT_NAMED 1861-02-13 09:00:00 NR -13.2354 76.4059 main 2132 2127 _____P________ -1 -13.2354 76.4059 99 2 176
1861042S10077 1861 6 SI MM NOT_NAMED 1861-02-13 12:00:00 NR -13.3434 76.4138 main 2127 2123 _____P________ -1 -13.3434 76.4138 99 2 177
1861042S10077 1861 6 SI MM NOT_NAMED 1861-02-13 15:00:00 NR -13.4290 76.4235 main 2123 2118 _____P________ -1 -13.4290 76.4235 99 2 0
1861042S10077 1861 6 SI MM NOT_NAMED 1861-02-13 18:00:00 NR -13.4974 76.4350 main 2118 2114 _____P________ -1 -13.4974 76.4350 99 1 175
1861042S10077 1861 6 SI MM NOT_NAMED 1861-02-13 21:00:00 NR -13.5537 76.4485 main 2114 2114 _____P________ -1 -13.5537 76.4485 99 1 0
1861042S10077 1861 6 SI MM NOT_NAMED 1861-02-14 00:00:00 NR -13.6028 76.4638 main 2124 2124 _____P________ -1 -13.6028 76.4638 99 1 157
1861042S10077 1861 6 SI MM NOT_NAMED 1861-02-14 03:00:00 NR -13.6499 76.4810 main 2124 2119 _____P________ -1 -13.6499 76.4810 99 1 158
1861042S10077 1861 6 SI MM NOT_NAMED 1861-02-14 06:00:00 NR -13.7000 76.5000 reunion main 2119 2115 _____O________ -1 -13.7000 76.5000 99 9.90000 1 162
1861042S10077 1861 6 SI MM NOT_NAMED 1861-02-14 09:00:00 NR -13.7750 76.5165 main 2115 2115 _____P________ -1 -13.7750 76.5165 99 2 168
1861042S10077 1861 6 SI MM NOT_NAMED 1861-02-14 12:00:00 NR -13.8500 76.5347 main 2115 2110 _____P________ -1 -13.8500 76.5347 99 2 168
1861042S10077 1861 6 SI MM NOT_NAMED 1861-02-14 15:00:00 NR -13.9250 76.5549 main 2120 2116 _____P________ -1 -13.9250 76.5549 99 2 168
1861042S10077 1861 6 SI MM NOT_NAMED 1861-02-14 18:00:00 NR -14.0000 76.5776 main 2116 2112 _____P________ -1 -14.0000 76.5776 99 2 168
1861042S10077 1861 6 SI MM NOT_NAMED 1861-02-14 21:00:00 NR -14.0750 76.6030 main 2112 2112 _____P________ -1 -14.0750 76.6030 99 2 161
1861042S10077 1861 6 SI MM NOT_NAMED 1861-02-15 00:00:00 NR -14.1500 76.6316 main 2112 2108 _____P________ -1 -14.1500 76.6316 99 2 161
1861042S10077 1861 6 SI MM NOT_NAMED 1861-02-15 03:00:00 NR -14.2250 76.6638 main 2118 2114 _____P________ -1 -14.2250 76.6638 99 2 157
1861042S10077 1861 6 SI MM NOT_NAMED 1861-02-15 06:00:00 NR -14.3000 76.7000 reunion main 2114 2110 _____O________ -1 -14.3000 76.7000 99 9.90000 2 152
1861042S10077 1861 6 SI MM NOT_NAMED 1861-02-15 09:00:00 NR -14.3769 76.7407 main 2110 2110 _____P________ -1 -14.3769 76.7407 99 2 153
1861042S10077 1861 6 SI MM NOT_NAMED 1861-02-15 12:00:00 NR -14.4541 76.7856 main 2116 2116 _____P________ -1 -14.4541 76.7856 99 2 151
1861042S10077 1861 6 SI MM NOT_NAMED 1861-02-15 15:00:00 NR -14.5311 76.8340 main 2116 2112 _____P________ -1 -14.5311 76.8340 99 2 148
1861042S10077 1861 6 SI MM NOT_NAMED 1861-02-15 18:00:00 NR -14.6075 76.8850 main 2122 2118 _____P________ -1 -14.6075 76.8850 99 2 147
1861042S10077 1861 6 SI MM NOT_NAMED 1861-02-15 21:00:00 NR -14.6830 76.9379 main 2118 2118 _____P________ -1 -14.6830 76.9379 99 2 146
1861042S10077 1861 6 SI MM NOT_NAMED 1861-02-16 00:00:00 NR -14.7572 76.9919 main 2125 2125 _____P________ -1 -14.7572 76.9919 99 2 144
1861042S10077 1861 6 SI MM NOT_NAMED 1861-02-16 03:00:00 NR -14.8297 77.0462 main 2125 2125 _____P________ -1 -14.8297 77.0462 99 2 144
1861042S10077 1861 6 SI MM NOT_NAMED 1861-02-16 06:00:00 NR -14.9000 77.1000 reunion main 2131 2127 _____O________ -1 -14.9000 77.1000 99 9.90000 2 145
1861042S10077 1861 6 SI MM NOT_NAMED 1861-02-16 09:00:00 NR -14.9594 77.1405 main 2127 2127 _____P________ -1 -14.9594 77.1405 99 1 144
1861042S10077 1861 6 SI MM NOT_NAMED 1861-02-16 12:00:00 NR -15.0158 77.1799 main 2138 2134 _____P________ -1 -15.0158 77.1799 99 1 145
1861042S10077 1861 6 SI MM NOT_NAMED 1861-02-16 15:00:00 NR -15.0712 77.2201 main 2134 2134 _____P________ -1 -15.0712 77.2201 99 1 144
1861042S10077 1861 6 SI MM NOT_NAMED 1861-02-16 18:00:00 NR -15.1273 77.2629 main 2144 2141 _____P________ -1 -15.1273 77.2629 99 1 144
1861042S10077 1861 6 SI MM NOT_NAMED 1861-02-16 21:00:00 NR -15.1864 77.3103 main 2141 2141 _____P________ -1 -15.1864 77.3103 99 2 141
1861042S10077 1861 6 SI MM NOT_NAMED 1861-02-17 00:00:00 NR -15.2502 77.3644 main 2147 2147 _____P________ -1 -15.2502 77.3644 99 2 139
1861042S10077 1861 6 SI MM NOT_NAMED 1861-02-17 03:00:00 NR -15.3207 77.4269 main 2147 2147 _____P________ -1 -15.3207 77.4269 99 2 139
1861042S10077 1861 6 SI MM NOT_NAMED 1861-02-17 06:00:00 NR -15.4000 77.5000 reunion main 2154 2151 _____O________ -1 -15.4000 77.5000 99 9.90000 2 138
1861042S10077 1861 6 SI MM NOT_NAMED 1861-02-17 09:00:00 NR -15.4978 77.5911 main 2161 2158 _____P________ -1 -15.4978 77.5911 99 3 138
1861042S10077 1861 6 SI MM NOT_NAMED 1861-02-17 12:00:00 NR -15.6045 77.6929 main 2168 2165 _____P________ -1 -15.6045 77.6929 99 3 137
1861042S10077 1861 6 SI MM NOT_NAMED 1861-02-17 15:00:00 NR -15.7177 77.8032 main 2175 2172 _____P________ -1 -15.7177 77.8032 99 3 137
1861042S10077 1861 6 SI MM NOT_NAMED 1861-02-17 18:00:00 NR -15.8351 77.9197 main 2182 2179 _____P________ -1 -15.8351 77.9197 99 3 136
1861042S10077 1861 6 SI MM NOT_NAMED 1861-02-17 21:00:00 NR -15.9544 78.0400 main 2186 2186 _____P________ -1 -15.9544 78.0400 99 3 136
1861042S10077 1861 6 SI MM NOT_NAMED 1861-02-18 00:00:00 NR -16.0732 78.1617 main 2204 2201 _____P________ -1 -16.0732 78.1617 99 3 135
1861042S10077 1861 6 SI MM NOT_NAMED 1861-02-18 03:00:00 NR -16.1892 78.2825 main 2211 2208 _____P________ -1 -16.1892 78.2825 99 3 135
1861042S10077 1861 6 SI MM NOT_NAMED 1861-02-18 06:00:00 NR -16.3000 78.4000 reunion main 2218 2218 _____O________ -1 -16.3000 78.4000 99 9.90000 3 134
1861042S10077 1861 6 SI MM NOT_NAMED 1861-02-18 09:00:00 NR -16.3948 78.5048 main 2226 2226 _____P________ -1 -16.3948 78.5048 99 3 133
1861042S10077 1861 6 SI MM NOT_NAMED 1861-02-18 12:00:00 NR -16.4852 78.6074 main 2233 2233 _____P________ -1 -16.4852 78.6074 99 3 133
1861042S10077 1861 6 SI MM NOT_NAMED 1861-02-18 15:00:00 NR -16.5723 78.7083 main 2241 2241 _____P________ -1 -16.5723 78.7083 99 3 132
1861042S10077 1861 6 SI MM NOT_NAMED 1861-02-18 18:00:00 NR -16.6574 78.8078 main 2249 2249 _____P________ -1 -16.6574 78.8078 99 3 132
1861042S10077 1861 6 SI MM NOT_NAMED 1861-02-18 21:00:00 NR -16.7415 78.9064 main 2259 2256 _____P________ -1 -16.7415 78.9064 99 3 132
1861042S10077 1861 6 SI MM NOT_NAMED 1861-02-19 00:00:00 NR -16.8258 79.0043 main 2267 2264 _____P________ -1 -16.8258 79.0043 99 3 133
1861042S10077 1861 6 SI MM NOT_NAMED 1861-02-19 03:00:00 NR -16.9116 79.1020 main 2275 2272 _____P________ -1 -16.9116 79.1020 99 3 133
1861042S10077 1861 6 SI MM NOT_NAMED 1861-02-19 06:00:00 NR -17.0000 79.2000 reunion main 2283 2283 _____O________ -1 -17.0000 79.2000 99 9.90000 3 134
1861042S10077 1861 6 SI MM NOT_NAMED 1861-02-19 09:00:00 NR -17.0953 79.2981 main 2291 2291 _____P________ -1 -17.0953 79.2981 99 3 136
1861042S10077 1861 6 SI MM NOT_NAMED 1861-02-19 12:00:00 NR -17.1927 79.3961 main 2299 2299 _____P________ -1 -17.1927 79.3961 99 3 136
1861042S10077 1861 6 SI MM NOT_NAMED 1861-02-19 15:00:00 NR -17.2919 79.4941 main 2307 2307 _____P________ -1 -17.2919 79.4941 99 3 137
1861042S10077 1861 6 SI MM NOT_NAMED 1861-02-19 18:00:00 NR -17.3924 79.5927 main 2315 2315 _____P________ -1 -17.3924 79.5927 99 3 137
1861042S10077 1861 6 SI MM NOT_NAMED 1861-02-19 21:00:00 NR -17.4938 79.6922 main 2323 2321 _____P________ -1 -17.4938 79.6922 99 3 137
1861042S10077 1861 6 SI MM NOT_NAMED 1861-02-20 00:00:00 NR -17.5958 79.7930 main 2331 2329 _____P________ -1 -17.5958 79.7930 99 3 136
1861042S10077 1861 6 SI MM NOT_NAMED 1861-02-20 03:00:00 NR -17.6980 79.8954 main 2339 2339 _____P________ -1 -17.6980 79.8954 99 3 136
1861042S10077 1861 6 SI MM NOT_NAMED 1861-02-20 06:00:00 NR -17.8000 80.0000 reunion main 2348 2348 _____O________ -1 -17.8000 80.0000 99 9.90000 3 136
1861042S10077 1861 6 SI MM NOT_NAMED 1861-02-20 09:00:00 NR -17.8902 80.0910 main 2356 2356 _____P________ -1 -17.8902 80.0910 99 3 136
1861042S10077 1861 6 SI MM NOT_NAMED 1861-02-20 12:00:00 NR -17.9793 80.1820 main 2365 2365 _____P________ -1 -17.9793 80.1820 99 3 136
1861042S10077 1861 6 SI MM NOT_NAMED 1861-02-20 15:00:00 NR -18.0691 80.2760 main 2373 2373 _____P________ -1 -18.0691 80.2760 99 3 135
1861042S10077 1861 6 SI MM NOT_NAMED 1861-02-20 18:00:00 NR -18.1618 80.3762 main 2382 2382 _____P________ -1 -18.1618 80.3762 99 3 134
1861042S10077 1861 6 SI MM NOT_NAMED 1861-02-20 21:00:00 NR -18.2593 80.4856 main 2390 2390 _____P________ -1 -18.2593 80.4856 99 3 132
1861042S10077 1861 6 SI MM NOT_NAMED 1861-02-21 00:00:00 NR -18.3635 80.6073 main 2399 2399 _____P________ -1 -18.3635 80.6073 99 3 131
1861042S10077 1861 6 SI MM NOT_NAMED 1861-02-21 03:00:00 NR -18.4764 80.7443 main 2408 2408 _____P________ -1 -18.4764 80.7443 99 4 130
1861042S10077 1861 6 SI MM NOT_NAMED 1861-02-21 06:00:00 NR -18.6000 80.9000 main 2427 2427 _____O________ -1 -18.6000 80.9000 99 9.90000 4 129
1861042S10077 1861 6 SI MM NOT_NAMED 1861-02-21 09:00:00 NR -18.7395 81.0849 main 2446 2445 _____P________ -1 -18.7395 81.0849 99 5 128
1861042S10077 1861 6 SI MM NOT_NAMED 1861-02-21 12:00:00 NR -18.8894 81.2890 main 2464 2464 _____P________ -1 -18.8894 81.2890 99 5 128
1861042S10077 1861 6 SI MM NOT_NAMED 1861-02-21 15:00:00 NR -19.0479 81.5085 main 2483 2482 _____P________ -1 -19.0479 81.5085 99 5 127
1861042S10077 1861 6 SI MM NOT_NAMED 1861-02-21 18:00:00 NR -19.2130 81.7395 main 2501 2501 _____P________ -1 -19.2130 81.7395 99 6 127
1861042S10077 1861 6 SI MM NOT_NAMED 1861-02-21 21:00:00 NR -19.3827 81.9781 main 2530 2530 _____P________ -1 -19.3827 81.9781 99 6 127
1861042S10077 1861 6 SI MM NOT_NAMED 1861-02-22 00:00:00 NR -19.5550 82.2204 main 2549 2549 _____P________ -1 -19.5550 82.2204 99 6 127
1861042S10077 1861 6 SI MM NOT_NAMED 1861-02-22 03:00:00 NR -19.7281 82.4623 main 2579 2578 _____P________ -1 -19.7281 82.4623 99 6 127
1861042S10077 1861 6 SI MM NOT_NAMED 1861-02-22 06:00:00 NR -19.9000 82.7000 main 2597 2597 _____O________ -1 -19.9000 82.7000 99 9.90000 6 128
1861042S10077 1861 6 SI MM NOT_NAMED 1861-02-22 09:00:00 NR -20.0720 82.9305 main 2616 2616 _____P________ -1 -20.0720 82.9305 99 6 129
1861042S10077 1861 6 SI MM NOT_NAMED 1861-02-22 12:00:00 NR -20.2453 83.1604 main 2646 2645 _____P________ -1 -20.2453 83.1604 99 6 129
1861042S10077 1861 6 SI MM NOT_NAMED 1861-02-22 15:00:00 NR -20.4178 83.3876 main 2665 2665 _____P________ -1 -20.4178 83.3876 99 5 129
1861042S10077 1861 6 SI MM NOT_NAMED 1861-02-22 18:00:00 NR -20.5876 83.6096 main 2685 2683 _____P________ -1 -20.5876 83.6096 99 5 129
1861042S10077 1861 6 SI MM NOT_NAMED 1861-02-22 21:00:00 NR -20.7527 83.8242 main 2694 2687 _____P________ -1 -20.7527 83.8242 99 5 130
1861042S10077 1861 6 SI MM NOT_NAMED 1861-02-23 00:00:00 NR -20.9110 84.0291 main 2690 2683 _____P________ -1 -20.9110 84.0291 99 5 130
1861042S10077 1861 6 SI MM NOT_NAMED 1861-02-23 03:00:00 NR -21.0608 84.2218 main 2694 2688 _____P________ -1 -21.0608 84.2218 99 5 130
1861042S10077 1861 6 SI MM NOT_NAMED 1861-02-23 06:00:00 NR -21.2000 84.4000 main 2690 2684 _____O________ -1 -21.2000 84.4000 99 9.90000 4 130
1861042S10077 1861 6 SI MM NOT_NAMED 1861-02-23 09:00:00 NR -21.3273 84.5621 main 2686 2686 _____P________ -1 -21.3273 84.5621 99 4 130
1861042S10077 1861 6 SI MM NOT_NAMED 1861-02-23 12:00:00 NR -21.4436 84.7093 main 2689 2689 _____P________ -1 -21.4436 84.7093 99 3 130
1861042S10077 1861 6 SI MM NOT_NAMED 1861-02-23 15:00:00 NR -21.5506 84.8438 main 2701 2689 _____P________ -1 -21.5506 84.8438 99 3 131
1861042S10077 1861 6 SI MM NOT_NAMED 1861-02-23 18:00:00 NR -21.6498 84.9678 main 2689 2689 _____P________ -1 -21.6498 84.9678 99 3 130
1861042S10077 1861 6 SI MM NOT_NAMED 1861-02-23 21:00:00 NR -21.7429 85.0832 main 2692 2692 _____P________ -1 -21.7429 85.0832 99 3 131
1861042S10077 1861 6 SI MM NOT_NAMED 1861-02-24 00:00:00 NR -21.8312 85.1923 main 2695 2695 _____P________ -1 -21.8312 85.1923 99 3 131
1861042S10077 1861 6 SI MM NOT_NAMED 1861-02-24 03:00:00 NR -21.9164 85.2972 main 2698 2698 _____P________ -1 -21.9164 85.2972 99 3 131
1861042S10077 1861 6 SI MM NOT_NAMED 1861-02-24 06:00:00 NR -22.0000 85.4000 main 2701 _____O________ -1 -22.0000 85.4000 99 9.90000 3 132

IBTrACS Databaseについて

本データベースは、米国NOAAが公開する1842年以降の世界の熱帯低気圧のベストトラックデータアーカイブInternational Best Track Archive for Climate Stewardship (IBTrACS)を、ウェブで閲覧しやすい形式に変換したものです。

最終更新日:2021-10-08